createdAt,value
2022-12-29T00:01:25.203Z,4.08
2022-12-29T00:04:17.135Z,4.12
2022-12-29T00:10:55.368Z,4.49
2022-12-29T00:23:18.384Z,5.38
2022-12-29T00:26:13.798Z,5.29
2022-12-29T00:28:59.292Z,5.17
2022-12-29T00:31:26.039Z,5.17
2022-12-29T00:33:52.755Z,5.04
2022-12-29T00:36:24.323Z,5.05
2022-12-29T00:38:56.872Z,4.95
2022-12-29T00:41:23.497Z,4.75
2022-12-29T00:43:50.188Z,4.10
2022-12-29T00:46:19.952Z,3.99
2022-12-29T00:48:46.964Z,4.32
2022-12-29T00:51:13.688Z,4.22
2022-12-29T00:53:40.853Z,4.02
2022-12-29T00:56:07.725Z,4.08
2022-12-29T00:58:36.926Z,4.26
2022-12-29T01:01:06.341Z,3.91
2022-12-29T01:03:42.882Z,3.88
2022-12-29T01:06:11.616Z,3.42
2022-12-29T01:08:39.142Z,3.53
2022-12-29T01:11:09.866Z,3.37
2022-12-29T01:13:37.223Z,3.40
2022-12-29T01:16:06.788Z,3.41
2022-12-29T01:22:01.835Z,3.12
2022-12-29T01:24:28.561Z,2.93
2022-12-29T01:26:55.333Z,3.07
2022-12-29T01:36:31.303Z,2.90
2022-12-29T01:38:57.969Z,3.40
2022-12-29T01:41:24.696Z,3.41
2022-12-29T01:46:52.421Z,4.09
2022-12-29T01:49:29.067Z,4.20
2022-12-29T01:52:05.174Z,3.94
2022-12-29T01:54:38.768Z,3.89
2022-12-29T01:57:12.530Z,3.84
2022-12-29T01:59:47.059Z,3.92
2022-12-29T02:02:13.999Z,3.99
2022-12-29T02:04:44.054Z,3.94
2022-12-29T02:07:20.004Z,3.99
2022-12-29T02:09:52.648Z,4.38
2022-12-29T02:12:21.988Z,3.93
2022-12-29T02:14:55.955Z,4.02
2022-12-29T02:17:37.733Z,3.83
2022-12-29T02:20:20.889Z,3.72
2022-12-29T02:23:02.092Z,3.83
2022-12-29T02:25:53.743Z,3.62
2022-12-29T02:28:46.113Z,3.44
2022-12-29T02:31:22.084Z,3.37
2022-12-29T02:34:11.585Z,3.56
2022-12-29T02:37:10.574Z,3.45
2022-12-29T02:39:57.161Z,2.97
2022-12-29T02:42:55.836Z,2.99
2022-12-29T02:45:49.571Z,3.17
2022-12-29T02:48:33.753Z,3.30
2022-12-29T02:51:04.926Z,3.23
2022-12-29T02:53:35.892Z,2.86
2022-12-29T02:56:06.145Z,2.84
2022-12-29T02:58:35.903Z,3.11
2022-12-29T03:44:41.291Z,2.79
2022-12-29T03:47:33.329Z,2.63
2022-12-29T03:50:00.272Z,2.43
2022-12-29T03:52:29.739Z,2.48
2022-12-29T03:54:59.360Z,2.47
2022-12-29T03:57:26.014Z,2.62
2022-12-29T03:59:52.874Z,2.50
2022-12-29T04:10:38.320Z,2.43
2022-12-29T04:13:05.040Z,2.38
2022-12-29T04:15:31.866Z,2.13
2022-12-29T04:17:59.249Z,2.13
2022-12-29T04:20:25.904Z,1.96
2022-12-29T04:23:06.423Z,2.12
2022-12-29T04:25:33.888Z,2.02
2022-12-29T04:28:01.732Z,1.80
2022-12-29T04:30:28.618Z,1.98
2022-12-29T04:32:55.355Z,2.10
2022-12-29T04:35:28.022Z,2.15
2022-12-29T04:37:54.690Z,2.06
2022-12-29T04:40:21.390Z,2.49
2022-12-29T04:42:48.048Z,2.51
2022-12-29T04:45:14.669Z,2.31
2022-12-29T04:47:41.417Z,2.51
2022-12-29T04:50:08.454Z,2.44
2022-12-29T04:52:37.939Z,2.37
2022-12-29T04:55:05.746Z,2.42
2022-12-29T04:57:32.471Z,2.60
2022-12-29T05:00:00.189Z,2.79
2022-12-29T05:02:34.491Z,2.83
2022-12-29T05:08:35.931Z,2.51
2022-12-29T05:11:02.687Z,2.46
2022-12-29T05:13:50.673Z,2.31
2022-12-29T05:19:16.052Z,2.36
2022-12-29T05:21:42.668Z,3.32
2022-12-29T05:24:09.632Z,2.68
2022-12-29T05:26:40.210Z,2.61
2022-12-29T05:29:58.249Z,2.76
2022-12-29T05:39:48.522Z,3.12
2022-12-29T05:42:15.271Z,3.36
2022-12-29T05:44:42.014Z,3.32
2022-12-29T05:47:08.840Z,3.34
2022-12-29T05:49:35.599Z,3.01
2022-12-29T05:52:02.327Z,3.23
2022-12-29T05:54:30.051Z,3.44
2022-12-29T05:56:56.751Z,3.24
2022-12-29T05:59:23.441Z,3.32
2022-12-29T06:01:59.439Z,3.22
2022-12-29T06:04:26.325Z,2.64
2022-12-29T06:06:59.707Z,2.79
2022-12-29T06:09:26.655Z,2.90
2022-12-29T06:11:53.761Z,2.61
2022-12-29T06:14:20.601Z,2.60
2022-12-29T06:16:47.270Z,2.87
2022-12-29T06:19:14.002Z,2.69
2022-12-29T06:21:40.667Z,2.71
2022-12-29T06:24:07.545Z,2.57
2022-12-29T06:26:34.155Z,2.82
2022-12-29T06:29:00.784Z,2.76
2022-12-29T06:31:27.523Z,3.02
2022-12-29T06:33:54.194Z,3.01
2022-12-29T06:36:21.006Z,2.94
2022-12-29T06:38:47.633Z,2.58
2022-12-29T06:41:14.304Z,2.75
2022-12-29T06:43:41.171Z,2.73
2022-12-29T06:46:07.822Z,2.58
2022-12-29T06:48:34.500Z,2.47
2022-12-29T06:51:22.142Z,2.57
2022-12-29T06:53:48.866Z,2.58
2022-12-29T06:59:49.045Z,2.50
2022-12-29T07:02:15.867Z,2.54
2022-12-29T07:04:44.786Z,2.24
2022-12-29T07:07:11.644Z,2.02
2022-12-29T07:09:38.257Z,2.14
2022-12-29T07:12:05.144Z,2.07
2022-12-29T07:14:34.637Z,2.13
2022-12-29T07:17:34.399Z,2.00
2022-12-29T07:20:27.497Z,2.11
2022-12-29T07:22:54.329Z,2.23
2022-12-29T07:29:17.582Z,2.17
2022-12-29T07:31:58.122Z,2.09
2022-12-29T07:34:24.938Z,2.29
2022-12-29T07:36:51.847Z,2.24
2022-12-29T07:39:44.534Z,1.98
2022-12-29T07:42:29.513Z,2.13
2022-12-29T07:44:56.222Z,2.28
2022-12-29T07:47:22.838Z,2.42
2022-12-29T07:49:51.553Z,2.46
2022-12-29T07:52:18.220Z,2.49
2022-12-29T07:54:49.015Z,2.49
2022-12-29T07:57:16.067Z,2.39
2022-12-29T07:59:50.396Z,2.35
2022-12-29T08:02:17.134Z,2.15
2022-12-29T08:04:46.953Z,2.41
2022-12-29T08:07:13.615Z,2.42
2022-12-29T08:09:40.324Z,2.35
2022-12-29T08:12:07.224Z,2.40
2022-12-29T08:14:33.840Z,2.49
2022-12-29T08:17:00.469Z,2.11
2022-12-29T08:19:30.726Z,2.18
2022-12-29T08:22:03.830Z,2.13
2022-12-29T08:24:30.507Z,2.20
2022-12-29T08:26:57.264Z,2.57
2022-12-29T08:29:24.026Z,2.61
2022-12-29T08:31:50.647Z,2.65
2022-12-29T08:34:17.305Z,2.46
2022-12-29T08:36:43.996Z,2.19
2022-12-29T08:39:10.604Z,2.03
2022-12-29T08:41:37.665Z,2.20
2022-12-29T08:44:04.406Z,2.31
2022-12-29T08:46:34.463Z,2.39
2022-12-29T08:49:19.541Z,2.41
2022-12-29T08:51:46.235Z,2.15
2022-12-29T08:54:18.957Z,2.43
2022-12-29T08:56:45.613Z,2.47
2022-12-29T08:59:12.221Z,2.37
2022-12-29T09:01:44.774Z,2.62
2022-12-29T09:04:16.527Z,2.35
2022-12-29T09:06:47.237Z,2.35
2022-12-29T09:09:14.819Z,2.10
2022-12-29T09:11:42.907Z,1.90
2022-12-29T09:14:09.524Z,2.17
2022-12-29T09:16:38.110Z,2.24
2022-12-29T09:19:05.155Z,2.10
2022-12-29T09:21:31.973Z,2.30
2022-12-29T09:23:58.701Z,2.17
2022-12-29T09:26:25.494Z,2.15
2022-12-29T09:28:52.190Z,2.07
2022-12-29T09:31:18.848Z,2.03
2022-12-29T09:33:45.619Z,2.01
2022-12-29T09:36:12.257Z,2.20
2022-12-29T09:38:39.105Z,2.18
2022-12-29T09:41:25.203Z,2.23
2022-12-29T09:44:16.941Z,2.35
2022-12-29T09:46:50.535Z,2.19
2022-12-29T09:49:44.013Z,2.20
2022-12-29T09:52:19.276Z,2.15
2022-12-29T09:55:03.149Z,2.18
2022-12-29T09:57:40.030Z,2.22
2022-12-29T10:00:15.114Z,2.77
2022-12-29T10:02:47.504Z,2.01
2022-12-29T10:05:47.450Z,1.94
2022-12-29T10:08:24.192Z,2.28
2022-12-29T10:11:19.332Z,2.38
2022-12-29T10:13:55.111Z,2.54
2022-12-29T10:16:46.171Z,1.94
2022-12-29T10:19:34.690Z,1.98
2022-12-29T10:22:10.815Z,2.34
2022-12-29T10:24:40.457Z,2.68
2022-12-29T10:27:14.568Z,2.13
2022-12-29T10:29:48.954Z,1.97
2022-12-29T10:32:33.221Z,2.04
2022-12-29T10:35:38.474Z,2.03
2022-12-29T10:38:31.921Z,2.08
2022-12-29T10:41:36.030Z,2.03
2022-12-29T10:44:02.899Z,2.08
2022-12-29T10:46:38.425Z,1.84
2022-12-29T10:49:07.830Z,1.94
2022-12-29T10:51:45.996Z,2.02
2022-12-29T10:54:30.938Z,1.97
2022-12-29T10:57:13.088Z,2.06
2022-12-29T10:59:43.161Z,1.82
2022-12-29T11:02:12.747Z,2.08
2022-12-29T11:05:10.402Z,1.90
2022-12-29T11:07:37.980Z,2.06
2022-12-29T11:10:22.305Z,1.95
2022-12-29T11:13:11.930Z,2.12
2022-12-29T11:15:47.861Z,2.38
2022-12-29T11:18:36.540Z,2.23
2022-12-29T11:21:06.413Z,2.29
2022-12-29T11:23:42.311Z,1.96
2022-12-29T11:26:22.640Z,2.39
2022-12-29T11:29:09.442Z,2.14
2022-12-29T11:31:43.781Z,2.19
2022-12-29T11:34:19.276Z,2.14
2022-12-29T11:36:47.624Z,2.03
2022-12-29T11:39:33.241Z,2.16
2022-12-29T11:42:02.401Z,2.04
2022-12-29T11:44:38.309Z,2.05
2022-12-29T11:47:09.596Z,2.16
2022-12-29T11:49:36.577Z,2.15
2022-12-29T11:52:03.425Z,2.16
2022-12-29T11:54:37.798Z,2.16
2022-12-29T11:57:16.694Z,2.00
2022-12-29T11:59:51.159Z,1.91
2022-12-29T12:02:51.649Z,1.87
2022-12-29T12:05:40.809Z,2.03
2022-12-29T12:08:21.072Z,2.35
2022-12-29T12:10:59.758Z,2.08
2022-12-29T12:13:49.109Z,2.00
2022-12-29T12:16:23.580Z,2.19
2022-12-29T12:19:02.610Z,2.35
2022-12-29T12:21:45.050Z,2.29
2022-12-29T12:24:21.314Z,2.21
2022-12-29T12:27:16.340Z,2.38
2022-12-29T12:30:03.579Z,2.21
2022-12-29T12:32:47.488Z,2.25
2022-12-29T12:35:22.394Z,2.42
2022-12-29T12:38:16.316Z,2.46
2022-12-29T12:41:01.959Z,2.54
2022-12-29T12:43:42.886Z,2.41
2022-12-29T12:46:38.513Z,2.89
2022-12-29T12:49:23.605Z,2.52
2022-12-29T12:52:05.802Z,2.01
2022-12-29T12:54:35.458Z,2.24
2022-12-29T12:57:15.211Z,2.32
2022-12-29T12:59:59.720Z,2.31
2022-12-29T13:02:55.370Z,2.19
2022-12-29T13:05:35.249Z,2.28
2022-12-29T13:08:49.112Z,2.41
2022-12-29T13:11:37.171Z,2.20
2022-12-29T13:14:22.912Z,2.49
2022-12-29T13:16:52.220Z,2.39
2022-12-29T13:19:26.748Z,2.59
2022-12-29T13:22:13.673Z,2.35
2022-12-29T13:25:09.044Z,2.68
2022-12-29T13:28:01.670Z,2.78
2022-12-29T13:30:48.781Z,2.66
2022-12-29T13:33:50.453Z,2.78
2022-12-29T13:36:48.607Z,2.67
2022-12-29T13:39:22.547Z,2.79
2022-12-29T13:41:55.401Z,3.16
2022-12-29T13:44:40.167Z,3.54
2022-12-29T13:47:39.619Z,3.40
2022-12-29T13:50:16.653Z,2.75
2022-12-29T13:53:09.356Z,2.79
2022-12-29T13:55:35.915Z,2.85
2022-12-29T13:58:39.850Z,2.86
2022-12-29T14:01:12.894Z,2.93
2022-12-29T14:03:51.865Z,3.09
2022-12-29T14:06:30.432Z,3.14
2022-12-29T14:09:05.913Z,2.61
2022-12-29T14:11:38.976Z,2.80
2022-12-29T14:14:21.354Z,2.95
2022-12-29T14:16:49.855Z,3.71
2022-12-29T14:19:21.992Z,3.52
2022-12-29T14:22:02.960Z,3.22
2022-12-29T14:24:32.943Z,3.48
2022-12-29T14:26:59.957Z,3.14
2022-12-29T14:29:26.565Z,3.44
2022-12-29T14:31:54.016Z,3.35
2022-12-29T14:34:20.792Z,3.47
2022-12-29T14:36:57.825Z,3.50
2022-12-29T14:39:35.832Z,3.22
2022-12-29T14:42:08.132Z,3.18
2022-12-29T14:44:46.589Z,5.17
2022-12-29T14:47:25.414Z,4.96
2022-12-29T14:49:53.120Z,3.87
2022-12-29T14:52:24.843Z,3.80
2022-12-29T14:54:54.247Z,2.97
2022-12-29T14:57:34.996Z,3.18
2022-12-29T15:00:22.935Z,4.25
2022-12-29T15:03:24.904Z,4.24
2022-12-29T15:05:53.514Z,3.41
2022-12-29T15:08:31.520Z,3.32
2022-12-29T15:11:06.834Z,3.47
2022-12-29T15:13:39.553Z,3.43
2022-12-29T15:16:26.969Z,2.97
2022-12-29T15:18:54.586Z,2.96
2022-12-29T15:21:30.507Z,2.99
2022-12-29T15:23:57.887Z,3.08
2022-12-29T15:26:36.998Z,3.11
2022-12-29T15:29:03.722Z,2.98
2022-12-29T15:31:31.061Z,3.27
2022-12-29T15:34:12.533Z,3.24
2022-12-29T15:36:41.191Z,3.52
2022-12-29T15:39:20.781Z,3.52
2022-12-29T15:42:35.585Z,4.47
2022-12-29T15:45:11.403Z,4.44
2022-12-29T15:47:42.528Z,4.55
2022-12-29T15:50:09.765Z,4.93
2022-12-29T15:52:41.002Z,6.54
2022-12-29T15:55:25.745Z,4.46
2022-12-29T15:57:58.015Z,4.32
2022-12-29T16:00:31.500Z,3.84
2022-12-29T16:03:02.870Z,3.81
2022-12-29T16:05:37.352Z,5.05
2022-12-29T16:08:21.960Z,6.09
2022-12-29T16:10:49.057Z,3.87
2022-12-29T16:13:42.228Z,4.05
2022-12-29T16:16:17.294Z,4.41
2022-12-29T16:18:46.982Z,4.45
2022-12-29T16:21:36.833Z,4.64
2022-12-29T16:24:10.119Z,5.68
2022-12-29T16:26:37.400Z,5.58
2022-12-29T16:29:08.285Z,4.95
2022-12-29T16:31:57.952Z,5.00
2022-12-29T16:34:34.224Z,5.87
2022-12-29T16:37:00.788Z,6.25
2022-12-29T16:39:40.646Z,5.70
2022-12-29T16:42:36.748Z,4.91
2022-12-29T16:45:43.227Z,4.93
2022-12-29T16:48:55.156Z,4.37
2022-12-29T16:51:32.570Z,4.47
2022-12-29T16:54:00.570Z,4.26
2022-12-29T16:56:34.814Z,4.36
2022-12-29T16:59:22.559Z,4.17
2022-12-29T17:01:49.355Z,3.95
2022-12-29T17:04:16.227Z,3.65
2022-12-29T17:06:43.032Z,4.07
2022-12-29T17:09:22.131Z,4.83
2022-12-29T17:11:59.231Z,4.83
2022-12-29T17:14:45.177Z,5.53
2022-12-29T17:17:42.402Z,5.51
2022-12-29T17:20:23.583Z,5.45
2022-12-29T17:22:51.782Z,6.63
2022-12-29T17:25:21.373Z,5.92
2022-12-29T17:27:56.275Z,5.82
2022-12-29T17:30:31.175Z,4.80
2022-12-29T17:33:05.404Z,5.11
2022-12-29T17:35:32.055Z,4.98
2022-12-29T17:37:58.739Z,5.06
2022-12-29T17:40:29.607Z,4.73
2022-12-29T17:42:58.812Z,4.97
2022-12-29T17:45:28.659Z,4.94
2022-12-29T17:47:56.244Z,5.18
2022-12-29T17:50:28.342Z,5.36
2022-12-29T17:53:00.931Z,5.68
2022-12-29T17:55:36.688Z,6.41
2022-12-29T17:58:25.937Z,7.43
2022-12-29T18:00:56.488Z,6.82
2022-12-29T18:03:29.198Z,6.00
2022-12-29T18:05:57.475Z,5.66
2022-12-29T18:08:24.116Z,6.07
2022-12-29T18:10:55.453Z,6.82
2022-12-29T18:13:36.029Z,6.40
2022-12-29T18:16:12.160Z,6.41
2022-12-29T18:18:38.823Z,6.44
2022-12-29T18:21:06.585Z,5.96
2022-12-29T18:23:34.293Z,5.77
2022-12-29T18:26:28.654Z,6.48
2022-12-29T18:28:56.425Z,6.08
2022-12-29T18:31:28.129Z,6.69
2022-12-29T18:33:57.760Z,6.83
2022-12-29T18:36:25.806Z,7.25
2022-12-29T18:38:52.418Z,6.02
2022-12-29T18:41:28.251Z,5.93
2022-12-29T18:43:55.463Z,6.03
2022-12-29T18:46:25.005Z,6.19
2022-12-29T18:48:53.054Z,5.92
2022-12-29T18:51:22.512Z,6.68
2022-12-29T18:53:50.439Z,6.74
2022-12-29T18:56:17.053Z,5.86
2022-12-29T18:58:43.691Z,4.16
2022-12-29T19:01:23.593Z,4.48
2022-12-29T19:03:50.414Z,3.89
2022-12-29T19:06:17.556Z,4.01
2022-12-29T19:08:44.153Z,4.02
2022-12-29T19:11:10.768Z,4.44
2022-12-29T19:13:39.337Z,9.41
2022-12-29T19:16:06.962Z,6.26
2022-12-29T19:18:58.593Z,8.80
2022-12-29T19:21:21.578Z,5.30
2022-12-29T19:23:49.265Z,4.15
2022-12-29T19:26:31.894Z,4.48
2022-12-29T19:29:00.245Z,4.56
2022-12-29T19:31:26.889Z,4.36
2022-12-29T19:33:53.851Z,4.14
2022-12-29T19:36:22.031Z,4.23
2022-12-29T19:38:48.789Z,4.30
2022-12-29T19:41:15.607Z,3.89
2022-12-29T19:43:42.410Z,4.29
2022-12-29T19:46:11.222Z,4.17
2022-12-29T19:48:37.886Z,3.69
2022-12-29T19:51:10.515Z,3.48
2022-12-29T19:53:37.599Z,3.68
2022-12-29T19:56:07.016Z,3.64
2022-12-29T19:58:35.751Z,3.60
2022-12-29T20:01:12.981Z,6.15
2022-12-29T20:03:40.064Z,3.60
2022-12-29T20:06:08.893Z,2.93
2022-12-29T20:08:36.831Z,3.84
2022-12-29T20:11:06.836Z,4.12
2022-12-29T20:13:34.906Z,2.84
2022-12-29T20:16:05.557Z,2.46
2022-12-29T20:18:32.231Z,2.58
2022-12-29T20:21:03.467Z,3.02
2022-12-29T20:23:30.878Z,3.13
2022-12-29T20:25:59.452Z,3.53
2022-12-29T20:28:27.536Z,4.02
2022-12-29T20:31:13.588Z,4.09
2022-12-29T20:33:40.323Z,4.70
2022-12-29T20:36:11.874Z,8.54
2022-12-29T20:38:38.965Z,8.29
2022-12-29T20:41:05.597Z,6.69
2022-12-29T20:43:32.270Z,4.12
2022-12-29T20:45:59.394Z,4.47
2022-12-29T20:48:26.555Z,4.42
2022-12-29T20:50:53.303Z,4.59
2022-12-29T20:53:19.903Z,4.09
2022-12-29T20:55:46.927Z,4.63
2022-12-29T20:58:23.566Z,5.94
2022-12-29T21:00:50.751Z,6.22
2022-12-29T21:03:17.504Z,6.40
2022-12-29T21:05:44.205Z,5.35
2022-12-29T21:08:10.945Z,4.83
2022-12-29T21:10:37.940Z,5.32
2022-12-29T21:13:04.631Z,7.02
2022-12-29T21:15:34.061Z,6.65
2022-12-29T21:18:00.659Z,6.44
2022-12-29T21:20:27.271Z,6.09
2022-12-29T21:22:53.878Z,5.10
2022-12-29T21:25:20.515Z,5.36
2022-12-29T21:27:47.158Z,5.78
2022-12-29T21:30:13.948Z,4.41
2022-12-29T21:32:44.075Z,3.53
2022-12-29T21:35:10.744Z,4.04
2022-12-29T21:37:37.465Z,4.37
2022-12-29T21:40:04.454Z,4.00
2022-12-29T21:42:31.682Z,3.62
2022-12-29T21:44:58.288Z,3.58
2022-12-29T21:47:24.904Z,3.69
2022-12-29T21:49:51.631Z,2.91
2022-12-29T21:52:18.278Z,3.02
2022-12-29T21:54:44.989Z,3.30
2022-12-29T21:57:19.461Z,2.58
2022-12-29T21:59:47.954Z,2.82
2022-12-29T22:02:34.955Z,2.73
2022-12-29T22:05:01.853Z,2.53
2022-12-29T22:07:28.915Z,2.39
2022-12-29T22:09:55.560Z,1.55
2022-12-29T22:12:22.187Z,1.45
2022-12-29T22:14:48.785Z,1.17
2022-12-29T22:17:17.935Z,1.43
2022-12-29T22:19:46.125Z,2.84
2022-12-29T22:22:12.727Z,3.40
2022-12-29T22:24:39.347Z,2.58
2022-12-29T22:27:05.963Z,3.80
2022-12-29T22:29:32.551Z,1.79
2022-12-29T22:31:59.154Z,1.82
2022-12-29T22:34:25.784Z,1.80
2022-12-29T22:36:52.415Z,2.17
2022-12-29T22:39:19.050Z,2.04
2022-12-29T22:41:45.709Z,8.13
2022-12-29T22:44:12.333Z,11.36
2022-12-29T22:46:38.983Z,7.67
2022-12-29T22:49:24.482Z,7.44
2022-12-29T22:52:09.587Z,4.62
2022-12-29T22:54:54.829Z,8.10
2022-12-29T22:57:40.110Z,7.30
2022-12-29T23:00:25.133Z,7.91
2022-12-29T23:02:52.047Z,5.37
2022-12-29T23:05:18.841Z,5.60
2022-12-29T23:07:45.450Z,5.52
2022-12-29T23:10:12.072Z,6.88
2022-12-29T23:12:38.730Z,5.43
2022-12-29T23:15:05.975Z,6.37
2022-12-29T23:17:32.603Z,7.94
2022-12-29T23:19:59.205Z,5.27
2022-12-29T23:22:25.800Z,8.33
2022-12-29T23:24:52.497Z,12.22
2022-12-29T23:27:19.138Z,12.22
2022-12-29T23:29:45.980Z,11.63
2022-12-29T23:32:12.865Z,9.74
2022-12-29T23:34:39.536Z,8.11
2022-12-29T23:37:06.188Z,9.10
2022-12-29T23:39:33.367Z,7.04
2022-12-29T23:42:00.013Z,4.89
2022-12-29T23:44:26.727Z,5.08
2022-12-29T23:46:53.455Z,4.54
2022-12-29T23:49:20.306Z,4.16
2022-12-29T23:51:46.943Z,3.27
2022-12-29T23:54:13.548Z,2.63
2022-12-29T23:56:40.179Z,3.11
2022-12-29T23:59:07.171Z,3.23
